This is the latest recevied weather packets stored in our database for station/object KA6AKH-13. If no packets are shown the sender has not sent any weather packets the latest 10 day(s).
| Time | Temp. | Humidity | Pressure | Rain* | Wind** | Luminosity | Snow |
|---|---|---|---|---|---|---|---|
| 1777681728 | 17.22° C | 49% | 1009.7 hPa | 0 mm | - | - | - |
| 1777680528 | 17.78° C | 48% | 1010 hPa | 0 mm | - | - | - |
| 1777679928 | 17.78° C | 47% | 1009.9 hPa | 0 mm | - | - | - |
| 1777679454 | 17.78° C | 47% | 1009.8 hPa | 0 mm | - | - | - |
| 1777679328 | 17.78° C | 47% | 1009.8 hPa | 0 mm | - | - | - |
| 1777678698 | 17.78° C | 46% | 1009.7 hPa | 0 mm | - | - | - |
| 1777677438 | 18.33° C | 44% | 1009.4 hPa | 0 mm | - | - | - |
| 1777676839 | 18.33° C | 43% | 1009.5 hPa | 0 mm | - | - | - |
| 1777676700 | 18.89° C | 44% | 1009.6 hPa | 0 mm | - | - | - |
| 1777676238 | 18.89° C | 44% | 1009.6 hPa | 0 mm | - | - | - |
| 1777675008 | 20° C | 40% | 1010.1 hPa | 0 mm | - | - | - |
| 1777672573 | 20° C | 41% | 1010 hPa | 0 mm | - | - | - |
| 1777671941 | 20° C | 40% | 1010.1 hPa | 0 mm | - | - | - |
| 1777671341 | 19.44° C | 40% | 1010.1 hPa | 0 mm | - | - | - |
| 1777670899 | 19.44° C | 41% | 1010.3 hPa | 0 mm | - | - | - |
| 1777670741 | 19.44° C | 41% | 1010.3 hPa | 0 mm | - | - | - |
| 1777670111 | 19.44° C | 41% | 1010.2 hPa | 0 mm | - | - | - |
| 1777664474 | 20° C | 34% | 1011.6 hPa | 0 mm | - | - | - |
| 1777663875 | 20° C | 37% | 1011.7 hPa | 0 mm | - | - | - |
| 1777663408 | 20.56° C | 32% | 1011.9 hPa | 0 mm | - | - | - |
| 1777663274 | 20.56° C | 32% | 1011.9 hPa | 0 mm | - | - | - |
| 1777662674 | 20.56° C | 31% | 1012 hPa | 0 mm | - | - | - |
| 1777662233 | 20.56° C | 32% | 1012.2 hPa | 0 mm | - | - | - |
| 1777662044 | 20.56° C | 32% | 1012.2 hPa | 0 mm | - | - | - |
| 1777661414 | 20.56° C | 35% | 1012.3 hPa | 0 mm | - | - | - |
* Rain latest hour (hover to see other rain measurements)
** Current wind speed in m/s (hover to see current wind gust speed)